sensor_id;sensor_type;location;lat;lon;timestamp;pressure;altitude;pressure_sealevel;temperature;humidity
68654;BME280;55636;51.108;13.622;2023-06-14T00:00:23;100326.81;;;14.82;43.98
68654;BME280;55636;51.108;13.622;2023-06-14T00:01:26;100325.13;;;14.81;44.03
68654;BME280;55636;51.108;13.622;2023-06-14T00:02:29;100331.00;;;14.79;44.22
68654;BME280;55636;51.108;13.622;2023-06-14T00:03:31;100330.44;;;14.77;44.51
68654;BME280;55636;51.108;13.622;2023-06-14T00:04:35;100322.09;;;14.77;44.53
68654;BME280;55636;51.108;13.622;2023-06-14T00:05:38;100324.34;;;14.75;44.07
68654;BME280;55636;51.108;13.622;2023-06-14T00:06:43;100333.81;;;14.74;44.33
68654;BME280;55636;51.108;13.622;2023-06-14T00:07:48;100325.75;;;14.73;44.32
68654;BME280;55636;51.108;13.622;2023-06-14T00:08:50;100324.63;;;14.74;44.26
68654;BME280;55636;51.108;13.622;2023-06-14T00:09:53;100324.38;;;14.70;44.51
68654;BME280;55636;51.108;13.622;2023-06-14T00:10:55;100326.28;;;14.70;44.42
68654;BME280;55636;51.108;13.622;2023-06-14T00:11:58;100321.03;;;14.68;44.68
68654;BME280;55636;51.108;13.622;2023-06-14T00:13:03;100324.09;;;14.66;44.62
68654;BME280;55636;51.108;13.622;2023-06-14T00:14:06;100315.22;;;14.64;44.87
68654;BME280;55636;51.108;13.622;2023-06-14T00:15:09;100319.41;;;14.62;45.05
68654;BME280;55636;51.108;13.622;2023-06-14T00:16:12;100322.47;;;14.60;45.00
68654;BME280;55636;51.108;13.622;2023-06-14T00:17:14;100317.22;;;14.59;44.65
68654;BME280;55636;51.108;13.622;2023-06-14T00:18:18;100316.66;;;14.57;44.68
68654;BME280;55636;51.108;13.622;2023-06-14T00:19:21;100308.09;;;14.53;44.96
68654;BME280;55636;51.108;13.622;2023-06-14T00:20:23;100315.06;;;14.51;44.80
68654;BME280;55636;51.108;13.622;2023-06-14T00:21:26;100313.69;;;14.48;44.78
68654;BME280;55636;51.108;13.622;2023-06-14T00:22:30;100318.69;;;14.46;44.95
68654;BME280;55636;51.108;13.622;2023-06-14T00:23:33;100318.16;;;14.44;45.13
68654;BME280;55636;51.108;13.622;2023-06-14T00:24:36;100312.84;;;14.42;45.00
68654;BME280;55636;51.108;13.622;2023-06-14T00:25:38;100314.00;;;14.41;45.20
68654;BME280;55636;51.108;13.622;2023-06-14T00:26:41;100317.03;;;14.40;45.19
68654;BME280;55636;51.108;13.622;2023-06-14T00:27:43;100321.22;;;14.37;45.04
68654;BME280;55636;51.108;13.622;2023-06-14T00:28:46;100314.84;;;14.37;45.07
68654;BME280;55636;51.108;13.622;2023-06-14T00:29:48;100312.38;;;14.35;45.21
68654;BME280;55636;51.108;13.622;2023-06-14T00:30:50;100314.59;;;14.33;45.23
68654;BME280;55636;51.108;13.622;2023-06-14T00:31:53;100313.78;;;14.32;45.27
68654;BME280;55636;51.108;13.622;2023-06-14T00:32:55;100314.06;;;14.31;45.23
68654;BME280;55636;51.108;13.622;2023-06-14T00:34:00;100310.72;;;14.29;45.60
68654;BME280;55636;51.108;13.622;2023-06-14T00:35:02;100315.72;;;14.27;45.41
68654;BME280;55636;51.108;13.622;2023-06-14T00:36:05;100321.28;;;14.27;45.46
68654;BME280;55636;51.108;13.622;2023-06-14T00:37:07;100317.16;;;14.24;45.53
68654;BME280;55636;51.108;13.622;2023-06-14T00:38:10;100313.53;;;14.24;45.51
68654;BME280;55636;51.108;13.622;2023-06-14T00:39:15;100322.16;;;14.22;45.74
68654;BME280;55636;51.108;13.622;2023-06-14T00:40:17;100317.72;;;14.21;45.69
68654;BME280;55636;51.108;13.622;2023-06-14T00:41:20;100314.41;;;14.19;45.66
68654;BME280;55636;51.108;13.622;2023-06-14T00:42:24;100313.84;;;14.17;45.78
68654;BME280;55636;51.108;13.622;2023-06-14T00:43:27;100324.97;;;14.17;45.88
68654;BME280;55636;51.108;13.622;2023-06-14T00:44:29;100313.28;;;14.15;45.92
68654;BME280;55636;51.108;13.622;2023-06-14T00:45:31;100323.88;;;14.13;45.76
68654;BME280;55636;51.108;13.622;2023-06-14T00:46:38;100316.66;;;14.12;45.76
68654;BME280;55636;51.108;13.622;2023-06-14T00:47:41;100319.72;;;14.10;45.70
68654;BME280;55636;51.108;13.622;2023-06-14T00:48:44;100314.47;;;14.09;45.78
68654;BME280;55636;51.108;13.622;2023-06-14T00:49:48;100320.28;;;14.07;46.14
68654;BME280;55636;51.108;13.622;2023-06-14T00:50:52;100326.97;;;14.06;46.09
68654;BME280;55636;51.108;13.622;2023-06-14T00:51:55;100326.13;;;14.06;46.22
68654;BME280;55636;51.108;13.622;2023-06-14T00:52:57;100320.28;;;14.02;46.00
68654;BME280;55636;51.108;13.622;2023-06-14T00:54:00;100314.75;;;14.02;46.17
68654;BME280;55636;51.108;13.622;2023-06-14T00:55:03;100318.94;;;13.99;45.98
68654;BME280;55636;51.108;13.622;2023-06-14T00:56:05;100319.22;;;13.98;46.24
68654;BME280;55636;51.108;13.622;2023-06-14T00:57:09;100315.63;;;13.97;46.27
68654;BME280;55636;51.108;13.622;2023-06-14T00:58:13;100303.94;;;13.95;46.41
68654;BME280;55636;51.108;13.622;2023-06-14T00:59:16;100312.56;;;13.94;46.56
68654;BME280;55636;51.108;13.622;2023-06-14T01:00:19;100308.13;;;13.93;46.35
68654;BME280;55636;51.108;13.622;2023-06-14T01:01:21;100311.19;;;13.91;46.23
68654;BME280;55636;51.108;13.622;2023-06-14T01:02:24;100305.94;;;13.90;46.49
68654;BME280;55636;51.108;13.622;2023-06-14T01:03:26;100303.44;;;13.88;46.75
68654;BME280;55636;51.108;13.622;2023-06-14T01:04:30;100307.31;;;13.87;46.76
68654;BME280;55636;51.108;13.622;2023-06-14T01:05:33;100308.44;;;13.86;46.89
68654;BME280;55636;51.108;13.622;2023-06-14T01:06:45;100304.00;;;13.85;46.70
68654;BME280;55636;51.108;13.622;2023-06-14T01:09:39;100300.97;;;13.81;46.57
68654;BME280;55636;51.108;13.622;2023-06-14T01:12:07;100309.31;;;13.76;47.00
68654;BME280;55636;51.108;13.622;2023-06-14T01:13:28;100302.09;;;13.75;47.14
68654;BME280;55636;51.108;13.622;2023-06-14T01:14:33;100303.50;;;13.73;46.89
68654;BME280;55636;51.108;13.622;2023-06-14T01:15:38;100304.88;;;13.70;46.95
68654;BME280;55636;51.108;13.622;2023-06-14T01:16:43;100303.19;;;13.69;47.22
68654;BME280;55636;51.108;13.622;2023-06-14T01:17:51;100301.53;;;13.68;46.97
68654;BME280;55636;51.108;13.622;2023-06-14T01:18:56;100300.16;;;13.65;46.93
68654;BME280;55636;51.108;13.622;2023-06-14T01:20:03;100304.31;;;13.63;47.00
68654;BME280;55636;51.108;13.622;2023-06-14T01:21:22;100295.16;;;13.62;47.02
68654;BME280;55636;51.108;13.622;2023-06-14T01:22:28;100298.22;;;13.61;47.36
68654;BME280;55636;51.108;13.622;2023-06-14T01:23:31;100295.75;;;13.59;47.55
68654;BME280;55636;51.108;13.622;2023-06-14T01:24:35;100297.97;;;13.57;47.49
68654;BME280;55636;51.108;13.622;2023-06-14T01:25:37;100307.41;;;13.56;47.44
68654;BME280;55636;51.108;13.622;2023-06-14T01:26:41;100302.41;;;13.53;47.77
68654;BME280;55636;51.108;13.622;2023-06-14T01:28:03;100303.53;;;13.52;47.48
68654;BME280;55636;51.108;13.622;2023-06-14T01:29:06;100298.25;;;13.50;47.51
68654;BME280;55636;51.108;13.622;2023-06-14T01:30:10;100304.09;;;13.49;47.71
68654;BME280;55636;51.108;13.622;2023-06-14T01:31:18;100303.25;;;13.48;47.88
68654;BME280;55636;51.108;13.622;2023-06-14T01:32:21;100299.94;;;13.46;47.79
68654;BME280;55636;51.108;13.622;2023-06-14T01:33:26;100303.00;;;13.45;47.79
68654;BME280;55636;51.108;13.622;2023-06-14T01:34:32;100297.72;;;13.43;47.91
68654;BME280;55636;51.108;13.622;2023-06-14T01:35:36;100301.63;;;13.42;47.98
68654;BME280;55636;51.108;13.622;2023-06-14T01:36:40;100299.97;;;13.41;47.90
68654;BME280;55636;51.108;13.622;2023-06-14T01:37:43;100305.50;;;13.41;47.87
68654;BME280;55636;51.108;13.622;2023-06-14T01:38:48;100306.06;;;13.38;48.01
68654;BME280;55636;51.108;13.622;2023-06-14T01:39:54;100297.72;;;13.38;48.11
68654;BME280;55636;51.108;13.622;2023-06-14T01:40:58;100302.75;;;13.36;48.23
68654;BME280;55636;51.108;13.622;2023-06-14T01:42:02;100304.66;;;13.36;47.97
68654;BME280;55636;51.108;13.622;2023-06-14T01:43:06;100293.03;;;13.33;47.98
68654;BME280;55636;51.108;13.622;2023-06-14T01:44:10;100299.69;;;13.32;48.14
68654;BME280;55636;51.108;13.622;2023-06-14T01:45:12;100294.44;;;13.31;47.94
68654;BME280;55636;51.108;13.622;2023-06-14T01:46:16;100301.09;;;13.30;48.50
68654;BME280;55636;51.108;13.622;2023-06-14T01:47:18;100300.56;;;13.28;48.27
68654;BME280;55636;51.108;13.622;2023-06-14T01:48:23;100301.66;;;13.27;48.27
68654;BME280;55636;51.108;13.622;2023-06-14T01:49:26;100301.09;;;13.25;48.48
68654;BME280;55636;51.108;13.622;2023-06-14T01:50:31;100300.56;;;13.23;48.44
68654;BME280;55636;51.108;13.622;2023-06-14T01:51:33;100297.22;;;13.21;48.60
68654;BME280;55636;51.108;13.622;2023-06-14T01:52:37;100306.63;;;13.20;48.39
68654;BME280;55636;51.108;13.622;2023-06-14T01:53:39;100303.34;;;13.17;48.65
68654;BME280;55636;51.108;13.622;2023-06-14T01:54:45;100298.03;;;13.16;48.71
68654;BME280;55636;51.108;13.622;2023-06-14T01:55:47;100301.94;;;13.15;48.59
68654;BME280;55636;51.108;13.622;2023-06-14T01:56:51;100300.56;;;13.12;48.71
68654;BME280;55636;51.108;13.622;2023-06-14T01:57:53;100296.94;;;13.12;48.90
68654;BME280;55636;51.108;13.622;2023-06-14T01:58:56;100304.44;;;13.11;48.87
68654;BME280;55636;51.108;13.622;2023-06-14T01:59:58;100304.72;;;13.10;48.77
68654;BME280;55636;51.108;13.622;2023-06-14T02:01:01;100307.78;;;13.08;48.69
68654;BME280;55636;51.108;13.622;2023-06-14T02:02:04;100306.13;;;13.07;48.91
68654;BME280;55636;51.108;13.622;2023-06-14T02:03:07;100307.22;;;13.06;48.91
68654;BME280;55636;51.108;13.622;2023-06-14T02:04:10;100312.19;;;13.04;49.03
68654;BME280;55636;51.108;13.622;2023-06-14T02:05:13;100306.13;;;13.02;49.03
68654;BME280;55636;51.108;13.622;2023-06-14T02:06:16;100312.78;;;13.01;48.88
68654;BME280;55636;51.108;13.622;2023-06-14T02:07:18;100314.16;;;12.98;49.25
68654;BME280;55636;51.108;13.622;2023-06-14T02:08:21;100311.66;;;12.97;49.14
68654;BME280;55636;51.108;13.622;2023-06-14T02:09:24;100317.22;;;12.97;49.20
68654;BME280;55636;51.108;13.622;2023-06-14T02:10:29;100312.19;;;12.94;49.28
68654;BME280;55636;51.108;13.622;2023-06-14T02:11:31;100309.72;;;12.92;49.45
68654;BME280;55636;51.108;13.622;2023-06-14T02:12:33;100321.38;;;12.89;49.65
68654;BME280;55636;51.108;13.622;2023-06-14T02:13:36;100321.66;;;12.88;49.53
68654;BME280;55636;51.108;13.622;2023-06-14T02:14:38;100322.75;;;12.87;49.55
68654;BME280;55636;51.108;13.622;2023-06-14T02:15:41;100327.47;;;12.86;49.72
68654;BME280;55636;51.108;13.622;2023-06-14T02:16:46;100328.88;;;12.83;49.82
68654;BME280;55636;51.108;13.622;2023-06-14T02:17:51;100323.56;;;12.82;49.57
68654;BME280;55636;51.108;13.622;2023-06-14T02:18:54;100326.63;;;12.80;49.61
68654;BME280;55636;51.108;13.622;2023-06-14T02:19:58;100322.47;;;12.78;49.87
68654;BME280;55636;51.108;13.622;2023-06-14T02:21:00;100320.78;;;12.77;50.03
68654;BME280;55636;51.108;13.622;2023-06-14T02:22:03;100321.34;;;12.74;50.10
68654;BME280;55636;51.108;13.622;2023-06-14T02:23:05;100323.31;;;12.73;50.08
68654;BME280;55636;51.108;13.622;2023-06-14T02:24:10;100329.97;;;12.72;49.98
68654;BME280;55636;51.108;13.622;2023-06-14T02:25:13;100324.69;;;12.71;50.16
68654;BME280;55636;51.108;13.622;2023-06-14T02:26:15;100319.41;;;12.69;50.08
68654;BME280;55636;51.108;13.622;2023-06-14T02:27:18;100319.69;;;12.67;50.01
68654;BME280;55636;51.108;13.622;2023-06-14T02:28:20;100322.72;;;12.66;50.30
68654;BME280;55636;51.108;13.622;2023-06-14T02:29:22;100324.97;;;12.64;50.41
68654;BME280;55636;51.108;13.622;2023-06-14T02:30:25;100326.88;;;12.63;50.39
68654;BME280;55636;51.108;13.622;2023-06-14T02:31:34;100325.50;;;12.61;50.24
68654;BME280;55636;51.108;13.622;2023-06-14T02:32:36;100324.94;;;12.59;50.32
68654;BME280;55636;51.108;13.622;2023-06-14T02:33:42;100324.94;;;12.59;50.45
68654;BME280;55636;51.108;13.622;2023-06-14T02:34:44;100328.81;;;12.58;50.20
68654;BME280;55636;51.108;13.622;2023-06-14T02:35:49;100333.50;;;12.57;50.37
68654;BME280;55636;51.108;13.622;2023-06-14T02:36:52;100329.91;;;12.57;50.40
68654;BME280;55636;51.108;13.622;2023-06-14T02:37:54;100330.19;;;12.55;50.68
68654;BME280;55636;51.108;13.622;2023-06-14T02:38:57;100332.09;;;12.55;50.40
68654;BME280;55636;51.108;13.622;2023-06-14T02:39:59;100327.94;;;12.52;50.81
68654;BME280;55636;51.108;13.622;2023-06-14T02:41:02;100326.31;;;12.51;50.79
68654;BME280;55636;51.108;13.622;2023-06-14T02:42:04;100327.41;;;12.50;50.63
68654;BME280;55636;51.108;13.622;2023-06-14T02:43:08;100327.69;;;12.48;50.74
68654;BME280;55636;51.108;13.622;2023-06-14T02:44:13;100327.09;;;12.46;50.77
68654;BME280;55636;51.108;13.622;2023-06-14T02:45:17;100331.84;;;12.46;50.75
68654;BME280;55636;51.108;13.622;2023-06-14T02:46:19;100329.06;;;12.46;50.96
68654;BME280;55636;51.108;13.622;2023-06-14T02:47:24;100333.22;;;12.43;50.95
68654;BME280;55636;51.108;13.622;2023-06-14T02:48:27;100330.44;;;12.43;50.90
68654;BME280;55636;51.108;13.622;2023-06-14T02:49:30;100330.69;;;12.42;50.87
68654;BME280;55636;51.108;13.622;2023-06-14T02:50:33;100330.97;;;12.40;50.98
68654;BME280;55636;51.108;13.622;2023-06-14T02:51:35;100333.75;;;12.40;50.89
68654;BME280;55636;51.108;13.622;2023-06-14T02:52:38;100326.81;;;12.38;51.23
68654;BME280;55636;51.108;13.622;2023-06-14T02:53:43;100330.72;;;12.37;51.32
68654;BME280;55636;51.108;13.622;2023-06-14T02:54:47;100330.72;;;12.37;51.25
68654;BME280;55636;51.108;13.622;2023-06-14T02:55:51;100334.56;;;12.35;51.30
68654;BME280;55636;51.108;13.622;2023-06-14T02:56:54;100329.31;;;12.34;51.32
68654;BME280;55636;51.108;13.622;2023-06-14T02:57:57;100331.22;;;12.33;51.42
68654;BME280;55636;51.108;13.622;2023-06-14T02:59:00;100332.63;;;12.31;51.40
68654;BME280;55636;51.108;13.622;2023-06-14T03:00:04;100335.38;;;12.31;51.61
68654;BME280;55636;51.108;13.622;2023-06-14T03:01:10;100332.06;;;12.29;51.37
68654;BME280;55636;51.108;13.622;2023-06-14T03:02:16;100336.75;;;12.28;51.47
68654;BME280;55636;51.108;13.622;2023-06-14T03:03:19;100334.84;;;12.29;51.54
68654;BME280;55636;51.108;13.622;2023-06-14T03:04:26;100330.69;;;12.26;51.68
68654;BME280;55636;51.108;13.622;2023-06-14T03:05:29;100335.38;;;12.26;51.57
68654;BME280;55636;51.108;13.622;2023-06-14T03:06:31;100329.00;;;12.25;51.62
68654;BME280;55636;51.108;13.622;2023-06-14T03:07:34;100336.22;;;12.26;51.61
68654;BME280;55636;51.108;13.622;2023-06-14T03:08:38;100333.69;;;12.25;51.88
68654;BME280;55636;51.108;13.622;2023-06-14T03:09:46;100333.16;;;12.23;51.97
68654;BME280;55636;51.108;13.622;2023-06-14T03:10:49;100330.38;;;12.23;51.83
68654;BME280;55636;51.108;13.622;2023-06-14T03:11:51;100330.38;;;12.23;51.99
68654;BME280;55636;51.108;13.622;2023-06-14T03:12:54;100329.53;;;12.22;51.99
68654;BME280;55636;51.108;13.622;2023-06-14T03:13:56;100334.25;;;12.22;51.97
68654;BME280;55636;51.108;13.622;2023-06-14T03:15:01;100335.91;;;12.23;51.81
68654;BME280;55636;51.108;13.622;2023-06-14T03:16:06;100334.25;;;12.22;51.78
68654;BME280;55636;51.108;13.622;2023-06-14T03:17:11;100335.63;;;12.19;51.76
68654;BME280;55636;51.108;13.622;2023-06-14T03:18:14;100333.69;;;12.19;52.06
68654;BME280;55636;51.108;13.622;2023-06-14T03:19:18;100338.13;;;12.21;51.93
68654;BME280;55636;51.108;13.622;2023-06-14T03:20:20;100340.34;;;12.18;51.88
68654;BME280;55636;51.108;13.622;2023-06-14T03:21:23;100336.72;;;12.18;52.21
68654;BME280;55636;51.108;13.622;2023-06-14T03:22:26;100337.84;;;12.17;52.12
68654;BME280;55636;51.108;13.622;2023-06-14T03:23:29;100338.09;;;12.15;52.19
68654;BME280;55636;51.108;13.622;2023-06-14T03:24:31;100332.31;;;12.17;52.04
68654;BME280;55636;51.108;13.622;2023-06-14T03:25:44;100338.94;;;12.16;52.21
68654;BME280;55636;51.108;13.622;2023-06-14T03:26:48;100338.94;;;12.16;52.43
68654;BME280;55636;51.108;13.622;2023-06-14T03:27:50;100341.72;;;12.16;52.12
68654;BME280;55636;51.108;13.622;2023-06-14T03:28:53;100340.63;;;12.17;52.42
68654;BME280;55636;51.108;13.622;2023-06-14T03:29:57;100343.38;;;12.17;52.45
68654;BME280;55636;51.108;13.622;2023-06-14T03:31:00;100345.03;;;12.18;52.54
68654;BME280;55636;51.108;13.622;2023-06-14T03:32:06;100344.22;;;12.17;52.45
68654;BME280;55636;51.108;13.622;2023-06-14T03:33:11;100338.66;;;12.17;52.49
68654;BME280;55636;51.108;13.622;2023-06-14T03:34:15;100347.53;;;12.19;52.57
68654;BME280;55636;51.108;13.622;2023-06-14T03:35:17;100351.16;;;12.20;52.27
68654;BME280;55636;51.108;13.622;2023-06-14T03:36:22;100356.69;;;12.20;52.39
68654;BME280;55636;51.108;13.622;2023-06-14T03:37:25;100354.72;;;12.21;52.32
68654;BME280;55636;51.108;13.622;2023-06-14T03:38:27;100355.59;;;12.21;52.49
68654;BME280;55636;51.108;13.622;2023-06-14T03:39:29;100360.00;;;12.22;52.54
68654;BME280;55636;51.108;13.622;2023-06-14T03:40:32;100359.19;;;12.22;52.67
68654;BME280;55636;51.108;13.622;2023-06-14T03:41:37;100367.22;;;12.23;52.45
68654;BME280;55636;51.108;13.622;2023-06-14T03:42:40;100365.28;;;12.24;52.42
68654;BME280;55636;51.108;13.622;2023-06-14T03:43:42;100366.09;;;12.24;52.57
68654;BME280;55636;51.108;13.622;2023-06-14T03:44:45;100375.00;;;12.26;52.39
68654;BME280;55636;51.108;13.622;2023-06-14T03:45:48;100368.59;;;12.26;52.35
68654;BME280;55636;51.108;13.622;2023-06-14T03:46:51;100372.22;;;12.26;52.57
68654;BME280;55636;51.108;13.622;2023-06-14T03:47:53;100372.22;;;12.26;52.46
68654;BME280;55636;51.108;13.622;2023-06-14T03:48:57;100371.94;;;12.28;52.50
68654;BME280;55636;51.108;13.622;2023-06-14T03:49:59;100376.38;;;12.29;52.34
68654;BME280;55636;51.108;13.622;2023-06-14T03:51:02;100377.47;;;12.28;52.58
68654;BME280;55636;51.108;13.622;2023-06-14T03:52:05;100378.88;;;12.30;52.45
68654;BME280;55636;51.108;13.622;2023-06-14T03:53:10;100380.78;;;12.30;52.39
68654;BME280;55636;51.108;13.622;2023-06-14T03:54:15;100379.69;;;12.31;52.40
68654;BME280;55636;51.108;13.622;2023-06-14T03:55:38;100385.25;;;12.31;52.38
68654;BME280;55636;51.108;13.622;2023-06-14T03:57:00;100388.84;;;12.31;52.39
68654;BME280;55636;51.108;13.622;2023-06-14T03:58:03;100390.50;;;12.32;52.70
68654;BME280;55636;51.108;13.622;2023-06-14T03:59:06;100386.63;;;12.33;52.36
68654;BME280;55636;51.108;13.622;2023-06-14T04:00:09;100389.41;;;12.33;52.66
68654;BME280;55636;51.108;13.622;2023-06-14T04:01:15;100386.63;;;12.33;52.47
68654;BME280;55636;51.108;13.622;2023-06-14T04:02:18;100394.66;;;12.35;52.54
68654;BME280;55636;51.108;13.622;2023-06-14T04:03:20;100391.91;;;12.35;52.52
68654;BME280;55636;51.108;13.622;2023-06-14T04:04:33;100395.50;;;12.35;52.69
68654;BME280;55636;51.108;13.622;2023-06-14T04:05:39;100398.28;;;12.35;52.57
68654;BME280;55636;51.108;13.622;2023-06-14T04:06:44;100397.44;;;12.35;52.52
68654;BME280;55636;51.108;13.622;2023-06-14T04:07:50;100401.88;;;12.36;52.48
68654;BME280;55636;51.108;13.622;2023-06-14T04:08:53;100398.81;;;12.38;52.48
68654;BME280;55636;51.108;13.622;2023-06-14T04:09:55;100404.38;;;12.38;52.56
68654;BME280;55636;51.108;13.622;2023-06-14T04:10:58;100406.88;;;12.39;52.62
68654;BME280;55636;51.108;13.622;2023-06-14T04:12:00;100404.66;;;12.41;52.43
68654;BME280;55636;51.108;13.622;2023-06-14T04:13:03;100399.41;;;12.40;52.58
68654;BME280;55636;51.108;13.622;2023-06-14T04:14:05;100401.63;;;12.43;52.52
68654;BME280;55636;51.108;13.622;2023-06-14T04:15:08;100400.78;;;12.42;52.83
68654;BME280;55636;51.108;13.622;2023-06-14T04:16:22;100404.69;;;12.46;52.62
68654;BME280;55636;51.108;13.622;2023-06-14T04:17:25;100406.06;;;12.49;52.68
68654;BME280;55636;51.108;13.622;2023-06-14T04:18:27;100400.84;;;12.53;52.88
68654;BME280;55636;51.108;13.622;2023-06-14T04:19:30;100399.44;;;12.55;52.74
68654;BME280;55636;51.108;13.622;2023-06-14T04:20:32;100397.78;;;12.59;52.64
68654;BME280;55636;51.108;13.622;2023-06-14T04:21:35;100390.91;;;12.62;52.78
68654;BME280;55636;51.108;13.622;2023-06-14T04:22:39;100390.06;;;12.66;52.62
68654;BME280;55636;51.108;13.622;2023-06-14T04:23:43;100392.59;;;12.73;52.77
68654;BME280;55636;51.108;13.622;2023-06-14T04:24:48;100390.66;;;12.79;52.61
68654;BME280;55636;51.108;13.622;2023-06-14T04:26:06;100400.38;;;12.87;52.44
68654;BME280;55636;51.108;13.622;2023-06-14T04:27:08;100392.88;;;12.92;52.68
68654;BME280;55636;51.108;13.622;2023-06-14T04:28:12;100396.22;;;12.99;52.47
68654;BME280;55636;51.108;13.622;2023-06-14T04:29:16;100394.84;;;13.07;52.67
68654;BME280;55636;51.108;13.622;2023-06-14T04:30:24;100396.25;;;13.15;52.51
68654;BME280;55636;51.108;13.622;2023-06-14T04:31:29;100397.63;;;13.23;52.12
68654;BME280;55636;51.108;13.622;2023-06-14T04:32:36;100404.28;;;13.32;52.29
68654;BME280;55636;51.108;13.622;2023-06-14T04:33:42;100397.06;;;13.41;52.03
68654;BME280;55636;51.108;13.622;2023-06-14T04:34:49;100397.34;;;13.50;52.07
68654;BME280;55636;51.108;13.622;2023-06-14T04:35:56;100388.16;;;13.60;51.60
68654;BME280;55636;51.108;13.622;2023-06-14T04:36:59;100394.78;;;13.69;51.51
68654;BME280;55636;51.108;13.622;2023-06-14T04:38:21;100395.38;;;13.81;51.19
68654;BME280;55636;51.108;13.622;2023-06-14T04:39:28;100396.44;;;13.91;51.33
68654;BME280;55636;51.108;13.622;2023-06-14T04:40:31;100392.50;;;14.02;51.00
68654;BME280;55636;51.108;13.622;2023-06-14T04:41:36;100389.69;;;14.12;50.98
68654;BME280;55636;51.108;13.622;2023-06-14T04:42:39;100397.97;;;14.23;50.65
68654;BME280;55636;51.108;13.622;2023-06-14T04:43:44;100397.94;;;14.33;50.63
68654;BME280;55636;51.108;13.622;2023-06-14T04:44:51;100405.13;;;14.44;50.65
68654;BME280;55636;51.108;13.622;2023-06-14T04:45:58;100405.06;;;14.55;50.12
68654;BME280;55636;51.108;13.622;2023-06-14T04:47:01;100413.06;;;14.66;49.95
68654;BME280;55636;51.108;13.622;2023-06-14T04:48:04;100410.56;;;14.75;49.88
68654;BME280;55636;51.108;13.622;2023-06-14T04:49:07;100419.66;;;14.86;49.45
68654;BME280;55636;51.108;13.622;2023-06-14T04:50:10;100421.50;;;14.96;49.59
68654;BME280;55636;51.108;13.622;2023-06-14T04:51:15;100418.41;;;15.08;49.26
68654;BME280;55636;51.108;13.622;2023-06-14T04:52:18;100423.59;;;15.20;48.89
68654;BME280;55636;51.108;13.622;2023-06-14T04:53:23;100423.78;;;15.28;48.74
68654;BME280;55636;51.108;13.622;2023-06-14T04:54:29;100422.06;;;15.38;48.54
68654;BME280;55636;51.108;13.622;2023-06-14T04:55:35;100413.59;;;15.48;48.17
68654;BME280;55636;51.108;13.622;2023-06-14T04:56:40;100418.53;;;15.56;47.91
68654;BME280;55636;51.108;13.622;2023-06-14T04:57:42;100419.88;;;15.64;47.66
68654;BME280;55636;51.108;13.622;2023-06-14T04:58:45;100420.38;;;15.71;47.53
68654;BME280;55636;51.108;13.622;2023-06-14T04:59:48;100422.53;;;15.79;47.29
68654;BME280;55636;51.108;13.622;2023-06-14T05:00:59;100425.19;;;15.90;46.98
68654;BME280;55636;51.108;13.622;2023-06-14T05:02:02;100429.81;;;16.00;46.83
68654;BME280;55636;51.108;13.622;2023-06-14T05:03:05;100434.22;;;16.06;46.86
68654;BME280;55636;51.108;13.622;2023-06-14T05:04:08;100428.28;;;16.12;47.15
68654;BME280;55636;51.108;13.622;2023-06-14T05:05:11;100423.72;;;16.22;46.89
68654;BME280;55636;51.108;13.622;2023-06-14T05:06:13;100427.50;;;16.31;46.53
68654;BME280;55636;51.108;13.622;2023-06-14T05:07:16;100426.03;;;16.39;46.48
68654;BME280;55636;51.108;13.622;2023-06-14T05:08:19;100420.94;;;16.46;46.40
68654;BME280;55636;51.108;13.622;2023-06-14T05:09:22;100419.13;;;16.55;46.10
68654;BME280;55636;51.108;13.622;2023-06-14T05:10:25;100424.06;;;16.63;46.17
68654;BME280;55636;51.108;13.622;2023-06-14T05:11:28;100417.78;;;16.72;45.90
68654;BME280;55636;51.108;13.622;2023-06-14T05:12:31;100422.72;;;16.80;45.70
68654;BME280;55636;51.108;13.622;2023-06-14T05:13:33;100420.06;;;16.89;45.39
68654;BME280;55636;51.108;13.622;2023-06-14T05:14:36;100423.84;;;16.98;45.34
68654;BME280;55636;51.108;13.622;2023-06-14T05:15:40;100424.81;;;17.07;45.36
68654;BME280;55636;51.108;13.622;2023-06-14T05:16:43;100416.56;;;17.16;45.21
68654;BME280;55636;51.108;13.622;2023-06-14T05:17:45;100424.78;;;17.26;45.06
68654;BME280;55636;51.108;13.622;2023-06-14T05:18:55;100432.16;;;17.36;44.73
68654;BME280;55636;51.108;13.622;2023-06-14T05:19:57;100424.75;;;17.45;44.75
68654;BME280;55636;51.108;13.622;2023-06-14T05:21:00;100433.28;;;17.54;44.59
68654;BME280;55636;51.108;13.622;2023-06-14T05:22:02;100437.84;;;17.64;44.21
68654;BME280;55636;51.108;13.622;2023-06-14T05:23:05;100438.28;;;17.71;43.78
68654;BME280;55636;51.108;13.622;2023-06-14T05:24:07;100439.25;;;17.81;43.88
68654;BME280;55636;51.108;13.622;2023-06-14T05:25:11;100436.56;;;17.89;43.58
68654;BME280;55636;51.108;13.622;2023-06-14T05:26:14;100437.50;;;17.99;43.82
68654;BME280;55636;51.108;13.622;2023-06-14T05:27:17;100435.66;;;18.08;43.27
68654;BME280;55636;51.108;13.622;2023-06-14T05:28:19;100426.53;;;18.16;43.24
68654;BME280;55636;51.108;13.622;2023-06-14T05:29:22;100432.25;;;18.25;42.95
68654;BME280;55636;51.108;13.622;2023-06-14T05:30:25;100430.41;;;18.34;42.72
68654;BME280;55636;51.108;13.622;2023-06-14T05:31:28;100422.94;;;18.43;42.89
68654;BME280;55636;51.108;13.622;2023-06-14T05:33:33;100429.75;;;18.65;42.66
68654;BME280;55636;51.108;13.622;2023-06-14T05:34:36;100424.75;;;18.76;42.45